createdAt,value
2016-06-17T13:14:23.453Z,30816
2016-06-17T13:15:21.597Z,30368
2016-06-17T13:16:22.818Z,21920
2016-06-17T13:17:22.791Z,21728
2016-06-17T13:18:22.169Z,32384
2016-06-17T13:19:22.767Z,32384
2016-06-17T13:20:21.520Z,46432
2016-06-17T13:21:21.524Z,34848
2016-06-17T13:22:21.575Z,62720
2016-06-17T13:23:22.750Z,38176
2016-06-17T13:24:22.753Z,35360
2016-06-17T13:25:23.366Z,32128
2016-06-17T13:26:22.135Z,43680
2016-06-17T13:27:22.107Z,36320
2016-06-17T13:28:22.720Z,83104
2016-06-17T13:29:22.724Z,65440
2016-06-17T13:30:23.351Z,58208
2016-06-17T13:31:22.090Z,54784
2016-06-17T13:32:23.358Z,53088
2016-06-17T13:33:22.705Z,76896
2016-06-17T13:34:22.678Z,39360
2016-06-17T13:35:22.759Z,31808
2016-06-17T13:36:23.310Z,34528
2016-06-17T13:37:22.688Z,28832
2016-06-17T13:38:22.067Z,42848
2016-06-17T13:39:22.039Z,87136
2016-06-17T13:40:23.292Z,90240
2016-06-17T13:41:22.046Z,86368
2016-06-17T13:42:21.441Z,90336
2016-06-17T13:43:22.677Z,79104
2016-06-17T13:44:22.666Z,20768
2016-06-17T13:45:21.481Z,42880
2016-06-17T13:46:21.423Z,33024
2016-06-17T13:47:22.644Z,101056
2016-06-17T13:48:22.039Z,92672
2016-06-17T13:49:23.308Z,28512
2016-06-17T13:50:22.030Z,16928
2016-06-17T13:51:22.643Z,21120
2016-06-17T13:52:21.396Z,26816
2016-06-17T13:53:22.024Z,17440
2016-06-17T13:54:22.028Z,17824
2016-06-17T13:55:22.641Z,14440
2016-06-17T13:56:22.645Z,11180
2016-06-17T13:57:23.243Z,9476
2016-06-17T13:58:22.639Z,7492
2016-06-17T13:59:21.394Z,5756
2016-06-17T14:00:21.400Z,4896
2016-06-17T14:01:22.016Z,4456
2016-06-17T14:02:22.756Z,3884
2016-06-17T14:03:22.821Z,3248
2016-06-17T14:04:22.622Z,2632
2016-06-17T14:05:21.393Z,2396
2016-06-17T14:06:21.991Z,2780
2016-06-17T14:07:40.749Z,4740
2016-06-17T14:08:22.608Z,6416
2016-06-17T14:09:22.003Z,8880
2016-06-17T14:10:22.600Z,12108
2016-06-17T14:11:23.214Z,16992
2016-06-17T14:12:22.577Z,21152
2016-06-17T14:13:21.955Z,21760
2016-06-17T14:14:21.944Z,22272
2016-06-17T14:15:21.947Z,23648
2016-06-17T14:16:21.309Z,16404
2016-06-17T14:17:22.546Z,11176
2016-06-17T14:18:21.925Z,5756
2016-06-17T14:19:22.523Z,4492
2016-06-17T14:20:22.526Z,6260
2016-06-17T14:21:22.513Z,7176
2016-06-17T14:22:21.893Z,6516
2016-06-17T14:23:22.505Z,4884
2016-06-17T14:24:22.509Z,3892
2016-06-17T14:25:22.482Z,3568
2016-06-17T14:26:21.266Z,3740
2016-06-17T14:27:22.472Z,4312
2016-06-17T14:28:21.851Z,4868
2016-06-17T14:29:22.463Z,5448
2016-06-17T14:30:21.841Z,5884
2016-06-17T14:31:22.440Z,5824
2016-06-17T14:32:21.210Z,5680
2016-06-17T14:33:22.432Z,5424
2016-06-17T14:34:21.796Z,5172
2016-06-17T14:35:21.801Z,4980
2016-06-17T14:36:21.820Z,4872
2016-06-17T14:37:21.167Z,4944
2016-06-17T14:38:22.421Z,5296
2016-06-17T14:39:21.769Z,5728
2016-06-17T14:40:21.132Z,6152
2016-06-17T14:41:21.761Z,6344
2016-06-17T14:42:22.375Z,6332
2016-06-17T14:43:22.987Z,6272
2016-06-17T14:44:21.724Z,6292
2016-06-17T14:45:21.102Z,6672
2016-06-17T14:46:22.325Z,7256
2016-06-17T14:47:22.360Z,7636
2016-06-17T14:48:22.926Z,7588
2016-06-17T14:49:21.071Z,7340
2016-06-17T14:50:22.277Z,7052
2016-06-17T14:51:21.670Z,6932
2016-06-17T14:52:22.346Z,6936
2016-06-17T14:53:21.021Z,7120
2016-06-17T14:54:22.869Z,7436
2016-06-17T14:55:21.622Z,7872
2016-06-17T14:56:22.251Z,8412
2016-06-17T14:57:21.629Z,8848
2016-06-17T14:58:21.616Z,9172
2016-06-17T14:59:21.574Z,9592
2016-06-17T15:00:22.202Z,10140
2016-06-17T15:01:21.580Z,10828
2016-06-17T15:02:20.944Z,11708
2016-06-17T15:03:21.540Z,12600
2016-06-17T15:04:21.544Z,12944
2016-06-17T15:05:22.157Z,13824
2016-06-17T15:06:22.145Z,14236
2016-06-17T15:07:21.508Z,14520
2016-06-17T15:08:21.512Z,14728
2016-06-17T15:09:21.499Z,14832
2016-06-17T15:10:21.471Z,14776
2016-06-17T15:11:22.725Z,14804
2016-06-17T15:12:21.494Z,15680
2016-06-17T15:13:20.841Z,16704
2016-06-17T15:14:22.079Z,18048
2016-06-17T15:15:22.051Z,18304
2016-06-17T15:16:20.852Z,18880
2016-06-17T15:17:21.433Z,18208
2016-06-17T15:18:22.047Z,17088
2016-06-17T15:19:20.784Z,16176
2016-06-17T15:20:21.428Z,15520
2016-06-17T15:21:22.822Z,14908
2016-06-17T15:22:22.685Z,14396
2016-06-17T15:23:22.610Z,13464
2016-06-17T15:24:21.380Z,12480
2016-06-17T15:25:21.977Z,11616
2016-06-17T15:26:21.370Z,10656
2016-06-17T15:27:21.358Z,9584
2016-06-17T15:28:22.581Z,8752
2016-06-17T15:29:21.334Z,8400
2016-06-17T15:30:21.338Z,8532
2016-06-17T15:31:21.310Z,9012
2016-06-17T15:32:22.549Z,9724
2016-06-17T15:33:21.927Z,10780
2016-06-17T15:34:21.290Z,12092
2016-06-17T15:35:21.887Z,13428
2016-06-17T15:36:21.938Z,14576
2016-06-17T15:37:22.534Z,15500
2016-06-17T15:38:21.335Z,16352
2016-06-17T15:39:22.496Z,17408
2016-06-17T15:40:22.485Z,17312
2016-06-17T15:41:21.223Z,16896
2016-06-17T15:42:22.464Z,16544
2016-06-17T15:43:20.608Z,16128
2016-06-17T15:44:21.831Z,14772
2016-06-17T15:45:21.193Z,13356
2016-06-17T15:46:21.822Z,12008
2016-06-17T15:47:20.577Z,10860
2016-06-17T15:48:20.565Z,10284
2016-06-17T15:49:21.788Z,9576
2016-06-17T15:50:21.167Z,9232
2016-06-17T15:51:20.542Z,9060
2016-06-17T15:52:21.155Z,9052
2016-06-17T15:53:21.142Z,9192
2016-06-17T15:54:21.757Z,9388
2016-06-17T15:55:21.135Z,9628
2016-06-17T15:56:21.123Z,9784
2016-06-17T15:57:21.110Z,9948
2016-06-17T15:58:21.723Z,9876
2016-06-17T15:59:21.727Z,9664
2016-06-17T16:00:21.714Z,9512
2016-06-17T16:01:21.078Z,9904
2016-06-17T16:02:21.706Z,9940
2016-06-17T16:03:21.319Z,10716
2016-06-17T16:04:21.681Z,11664
2016-06-17T16:05:21.060Z,11740
2016-06-17T16:06:20.439Z,11920
2016-06-17T16:07:20.410Z,11752
2016-06-17T16:08:22.273Z,11636
2016-06-17T16:09:21.027Z,12124
2016-06-17T16:10:21.641Z,12264
2016-06-17T16:11:21.002Z,12208
2016-06-17T16:12:20.444Z,11708
2016-06-17T16:13:21.603Z,11624
2016-06-17T16:14:20.998Z,11208
2016-06-17T16:15:20.361Z,10764
2016-06-17T16:16:20.958Z,10572
2016-06-17T16:17:20.962Z,10628
2016-06-17T16:18:21.574Z,10388
2016-06-17T16:19:20.937Z,9996
2016-06-17T16:20:20.940Z,9612
2016-06-17T16:21:21.554Z,9408
2016-06-17T16:22:20.307Z,9256
2016-06-17T16:23:20.905Z,9200
2016-06-17T16:24:20.908Z,8972
2016-06-17T16:25:21.520Z,8864
2016-06-17T16:26:20.899Z,8644
2016-06-17T16:27:21.511Z,8428
2016-06-17T16:28:21.547Z,8356
2016-06-17T16:29:20.878Z,8400
2016-06-17T16:30:20.897Z,8448
2016-06-17T16:31:20.244Z,8436
2016-06-17T16:32:20.857Z,8216
2016-06-17T16:33:21.470Z,7548
2016-06-17T16:34:20.832Z,7436
2016-06-17T16:35:20.836Z,7520
2016-06-17T16:36:20.839Z,7464
2016-06-17T16:37:21.437Z,7328
2016-06-17T16:38:20.799Z,6964
2016-06-17T16:39:21.460Z,6480
2016-06-17T16:40:20.791Z,6056
2016-06-17T16:41:20.779Z,5732
2016-06-17T16:42:21.407Z,5508
2016-06-17T16:43:20.754Z,5320
2016-06-17T16:44:20.133Z,5188
2016-06-17T16:45:21.386Z,5108
2016-06-17T16:46:21.968Z,5040
2016-06-17T16:47:20.737Z,5008
2016-06-17T16:48:21.351Z,4964
2016-06-17T16:49:20.779Z,4984
2016-06-17T16:50:21.333Z,5004
2016-06-17T16:51:20.746Z,5248
2016-06-17T16:52:20.721Z,5012
2016-06-17T16:53:20.711Z,4844
2016-06-17T16:54:20.685Z,4964
2016-06-17T16:55:20.704Z,5596
2016-06-17T16:56:21.319Z,8952
2016-06-17T16:57:20.713Z,16420
2016-06-17T16:58:20.672Z,22144
2016-06-17T16:59:21.285Z,24576
2016-06-17T17:00:21.272Z,28928
2016-06-17T17:01:20.059Z,28352
2016-06-17T17:02:20.655Z,23872
2016-06-17T17:03:20.644Z,20320
2016-06-17T17:04:20.007Z,20448
2016-06-17T17:05:20.634Z,16544
2016-06-17T17:06:20.622Z,10772
2016-06-17T17:07:21.250Z,6924
2016-06-17T17:08:20.614Z,5464
2016-06-17T17:09:21.227Z,5236
2016-06-17T17:10:20.605Z,5356
2016-06-17T17:11:21.234Z,5412
2016-06-17T17:12:20.642Z,5372
2016-06-17T17:13:20.568Z,5304
2016-06-17T17:14:21.166Z,5192
2016-06-17T17:15:20.560Z,5196
2016-06-17T17:16:20.579Z,5068
2016-06-17T17:17:19.926Z,5052
2016-06-17T17:18:21.211Z,5052
2016-06-17T17:19:20.527Z,4752
2016-06-17T17:20:21.140Z,4772
2016-06-17T17:21:21.128Z,4868
2016-06-17T17:22:21.162Z,4932
2016-06-17T17:23:20.556Z,4980
2016-06-17T17:24:19.873Z,3832
2016-06-17T17:25:19.876Z,4828
2016-06-17T17:26:20.521Z,4916
2016-06-17T17:27:19.899Z,5064
2016-06-17T17:28:20.480Z,5220
2016-06-17T17:29:20.452Z,5372
2016-06-17T17:30:21.690Z,5432
2016-06-17T17:31:21.069Z,5320
2016-06-17T17:32:20.431Z,5156
2016-06-17T17:33:20.420Z,5204
2016-06-17T17:34:21.032Z,5200
2016-06-17T17:35:20.426Z,5188
2016-06-17T17:36:20.398Z,5180
2016-06-17T17:37:21.011Z,5328
2016-06-17T17:38:20.405Z,5504
2016-06-17T17:39:21.049Z,5364
2016-06-17T17:40:20.365Z,5252
2016-06-17T17:41:20.993Z,5148
2016-06-17T17:42:21.590Z,5152
2016-06-17T17:43:20.954Z,5148
2016-06-17T17:44:19.708Z,5128
2016-06-17T17:45:20.961Z,5124
2016-06-17T17:46:19.698Z,5120
2016-06-17T17:47:20.983Z,5208
2016-06-17T17:48:20.924Z,5368
2016-06-17T17:49:20.912Z,5464
2016-06-17T17:50:20.291Z,5524
2016-06-17T17:51:20.340Z,5548
2016-06-17T17:52:21.485Z,5452
2016-06-17T17:53:19.628Z,5256
2016-06-17T17:54:20.851Z,4988
2016-06-17T17:55:19.621Z,4720
2016-06-17T17:56:20.250Z,4468
2016-06-17T17:57:20.864Z,4240
2016-06-17T17:58:20.838Z,4020
2016-06-17T17:59:21.437Z,3816
2016-06-17T18:00:20.817Z,3612
2016-06-17T18:01:19.588Z,3460
2016-06-17T18:02:21.452Z,3324
2016-06-17T18:03:20.190Z,3204
2016-06-17T18:04:20.226Z,3048
2016-06-17T18:05:21.402Z,2916
2016-06-17T18:06:19.547Z,2804
2016-06-17T18:07:20.754Z,2760
2016-06-17T18:08:20.758Z,2716
2016-06-17T18:09:20.120Z,2656
2016-06-17T18:10:20.124Z,2540
2016-06-17T18:11:20.113Z,2376
2016-06-17T18:12:19.490Z,2196
2016-06-17T18:13:20.760Z,2000
2016-06-17T18:14:20.701Z,1836
2016-06-17T18:15:20.080Z,1704
2016-06-17T18:16:20.677Z,1584
2016-06-17T18:17:20.055Z,1484
2016-06-17T18:18:19.512Z,1396
2016-06-17T18:19:20.061Z,1332
2016-06-17T18:20:20.018Z,1284
2016-06-17T18:21:20.022Z,1260
2016-06-17T18:22:20.010Z,1232
2016-06-17T18:23:19.998Z,1204
2016-06-17T18:24:19.986Z,1188
2016-06-17T18:25:19.974Z,1156
2016-06-17T18:26:20.571Z,1124
2016-06-17T18:27:19.340Z,1088
2016-06-17T18:28:21.234Z,1044
2016-06-17T18:29:19.972Z,1000
2016-06-17T18:30:19.303Z,956
2016-06-17T18:31:19.931Z,908
2016-06-17T18:32:19.279Z,860
2016-06-17T18:33:19.892Z,824
2016-06-17T18:34:20.505Z,776
2016-06-17T18:35:19.867Z,728
2016-06-17T18:36:19.856Z,612
2016-06-17T18:37:21.077Z,548
2016-06-17T18:38:21.127Z,496
2016-06-17T18:39:19.194Z,420
2016-06-17T18:40:20.431Z,384
2016-06-17T18:41:19.201Z,356
2016-06-17T18:42:20.408Z,336
2016-06-17T18:43:19.786Z,332
2016-06-17T18:44:19.789Z,332
2016-06-17T18:45:20.371Z,340
2016-06-17T18:46:20.391Z,352
2016-06-17T18:47:20.346Z,356
2016-06-17T18:48:19.757Z,368
2016-06-17T18:49:20.338Z,380
2016-06-17T18:50:20.326Z,404
2016-06-17T18:51:19.689Z,432
2016-06-17T18:52:19.723Z,468
2016-06-17T18:53:20.289Z,508
2016-06-17T18:54:19.043Z,540
2016-06-17T18:55:19.031Z,568
2016-06-17T18:56:20.253Z,588
2016-06-17T18:57:19.631Z,604
2016-06-17T18:58:19.619Z,620
2016-06-17T18:59:18.982Z,628
2016-06-17T19:00:19.578Z,628
2016-06-17T19:01:20.239Z,624
2016-06-17T19:02:19.008Z,628
2016-06-17T19:03:19.542Z,624
2016-06-17T19:04:18.937Z,620
2016-06-17T19:05:20.767Z,604
2016-06-17T19:06:20.146Z,592
2016-06-17T19:07:20.134Z,564
2016-06-17T19:08:20.105Z,532
2016-06-17T19:09:19.483Z,508
2016-06-17T19:10:20.721Z,500
2016-06-17T19:11:20.100Z,492
2016-06-17T19:12:20.071Z,480
2016-06-17T19:13:18.825Z,468
2016-06-17T19:14:19.438Z,456
2016-06-17T19:15:18.817Z,428
2016-06-17T19:16:18.789Z,408
2016-06-17T19:19:20.002Z,340
2016-06-17T19:20:19.365Z,312
2016-06-17T19:21:19.352Z,288
2016-06-17T19:22:19.950Z,276
2016-06-17T19:23:19.329Z,264
2016-06-17T19:24:18.692Z,252
2016-06-17T19:25:19.305Z,248
2016-06-17T19:26:18.683Z,240
2016-06-17T19:42:18.521Z,168
2016-06-17T19:43:19.728Z,152
2016-06-17T19:44:19.700Z,140
2016-06-17T19:45:19.703Z,128
2016-06-17T19:46:19.722Z,112
2016-06-17T19:47:18.445Z,104
2016-06-17T19:48:19.667Z,100
2016-06-17T19:49:19.046Z,96
2016-06-17T19:50:19.749Z,88
2016-06-17T19:51:20.316Z,84
2016-06-17T19:52:19.084Z,76
2016-06-17T19:53:19.057Z,72
2016-06-17T19:54:19.107Z,60
2016-06-17T19:55:19.048Z,52
2016-06-17T19:56:19.036Z,44
2016-06-17T19:57:19.008Z,40
2016-06-17T19:58:20.246Z,36
2016-06-17T19:59:18.390Z,36
2016-06-17T20:00:20.206Z,36
2016-06-17T20:01:20.241Z,32
2016-06-17T20:02:18.947Z,28
2016-06-17T20:03:18.950Z,28
2016-06-17T20:04:19.548Z,24
2016-06-17T20:05:20.160Z,20
2016-06-17T20:06:19.539Z,20
2016-06-17T20:07:18.277Z,16
2016-06-17T20:08:20.109Z,16
2016-06-17T20:09:19.487Z,16
2016-06-17T20:10:18.240Z,12
2016-06-17T20:11:18.854Z,12
2016-06-17T20:12:18.264Z,8
2016-06-17T20:13:20.065Z,12
2016-06-17T20:14:18.839Z,8
2016-06-17T20:15:18.876Z,12
2016-06-17T20:16:20.039Z,8
2016-06-17T20:17:18.796Z,4
2016-06-17T20:18:18.176Z,8
2016-06-17T20:19:19.383Z,4
2016-06-17T20:20:19.388Z,4
2016-06-17T20:21:18.783Z,4
2016-06-17T20:22:18.115Z,4
2016-06-17T20:23:18.105Z,4
2016-06-17T20:24:18.108Z,0
2016-06-17T20:25:18.706Z,4
2016-06-17T20:26:19.319Z,4
2016-06-17T20:27:19.917Z,4
2016-06-17T20:28:19.358Z,0
2016-06-17T20:29:19.268Z,0
2016-06-17T20:30:18.647Z,4
2016-06-17T20:31:18.650Z,4
2016-06-17T20:32:18.045Z,0
2016-06-17T20:33:19.220Z,0
2016-06-17T20:34:18.615Z,0
2016-06-17T20:35:19.244Z,0
2016-06-17T20:36:17.965Z,0
2016-06-17T20:37:18.594Z,0
2016-06-17T20:38:18.566Z,0
2016-06-17T20:39:19.788Z,0
2016-06-17T20:40:17.932Z,0
2016-06-17T20:41:19.154Z,0
2016-06-17T20:42:18.501Z,0
2016-06-17T20:43:19.114Z,0
2016-06-17T20:44:18.508Z,0
2016-06-17T20:45:18.481Z,0
2016-06-17T20:46:19.703Z,0
2016-06-17T20:47:19.691Z,0
2016-06-17T20:48:17.835Z,0
2016-06-17T20:49:17.807Z,0
2016-06-17T20:50:19.655Z,0
2016-06-17T20:51:19.033Z,0
2016-06-17T20:52:19.020Z,0
2016-06-17T20:53:19.008Z,0
2016-06-17T20:54:18.418Z,0
2016-06-17T20:55:18.968Z,0
2016-06-17T20:56:18.347Z,0
2016-06-17T20:57:18.335Z,0
2016-06-17T20:58:18.323Z,0
2016-06-17T20:59:18.327Z,0
2016-06-17T21:00:18.313Z,0
2016-06-17T21:01:17.677Z,0
2016-06-17T21:02:18.883Z,0
2016-06-17T21:03:18.886Z,0
2016-06-17T21:04:18.249Z,0
2016-06-17T21:05:18.253Z,0
2016-06-17T21:06:17.616Z,0
2016-06-17T21:07:19.494Z,0
2016-06-17T21:08:18.217Z,0
2016-06-17T21:09:17.564Z,0
2016-06-17T21:10:17.568Z,0
2016-06-17T21:11:18.179Z,0
2016-06-17T21:12:18.168Z,0
2016-06-17T21:13:17.531Z,0
2016-06-17T21:14:18.143Z,0
2016-06-17T21:15:18.740Z,0
2016-06-17T21:16:18.119Z,0
2016-06-17T21:17:19.342Z,0
2016-06-17T21:18:18.079Z,0
2016-06-17T21:19:18.099Z,0
2016-06-17T21:20:18.070Z,0
2016-06-17T21:21:18.700Z,0
2016-06-17T21:22:18.658Z,0
2016-06-17T21:23:18.647Z,0
2016-06-17T21:24:18.026Z,0
2016-06-17T21:25:17.406Z,0
2016-06-17T21:26:18.018Z,0
2016-06-17T21:27:18.601Z,0
2016-06-17T21:28:17.979Z,0
2016-06-17T21:29:18.578Z,0
2016-06-17T21:30:17.347Z,0
2016-06-17T21:31:17.928Z,0
2016-06-17T21:32:17.932Z,0
2016-06-17T21:33:18.560Z,0
2016-06-17T21:34:17.955Z,0
2016-06-17T21:35:17.926Z,0
2016-06-17T21:36:18.587Z,0
2016-06-17T21:37:18.496Z,0
2016-06-17T21:38:17.875Z,0
2016-06-17T21:39:18.612Z,0
2016-06-17T21:40:18.444Z,0
2016-06-17T21:41:32.683Z,0
2016-06-17T21:42:18.435Z,0
2016-06-17T21:43:17.190Z,0
2016-06-17T21:44:18.411Z,0
2016-06-17T21:45:17.774Z,0
2016-06-17T21:46:17.761Z,0
2016-06-17T21:47:19.000Z,0
2016-06-17T21:48:17.753Z,0
2016-06-17T21:49:17.725Z,0
2016-06-17T21:50:17.088Z,0
2016-06-17T21:51:17.107Z,0
2016-06-17T21:52:18.330Z,0
2016-06-17T21:53:18.302Z,0
2016-06-17T21:54:17.665Z,0
2016-06-17T21:55:18.309Z,0
2016-06-17T21:56:17.077Z,0
2016-06-17T21:57:17.018Z,0
2016-06-17T21:58:18.256Z,0
2016-06-17T21:59:18.244Z,0
2016-06-17T22:00:18.841Z,0
2016-06-17T22:01:18.876Z,0
2016-06-17T22:02:17.598Z,0
2016-06-17T22:03:17.556Z,0
2016-06-17T22:04:16.918Z,0
2016-06-17T22:05:17.531Z,0
2016-06-17T22:06:18.144Z,0
2016-06-17T22:07:18.115Z,0
2016-06-17T22:08:17.493Z,0
2016-06-17T22:09:18.107Z,0
2016-06-17T22:10:18.094Z,0
2016-06-17T22:11:18.114Z,0
2016-06-17T22:12:17.445Z,0
2016-06-17T22:13:17.433Z,0
2016-06-17T22:14:17.422Z,0
2016-06-17T22:15:17.425Z,0
2016-06-17T22:16:18.022Z,0
2016-06-17T22:17:17.994Z,0
2016-06-17T22:18:17.997Z,0
2016-06-17T22:19:17.423Z,0
2016-06-17T22:20:17.973Z,0
2016-06-17T22:21:16.710Z,0
2016-06-17T22:22:17.324Z,0
2016-06-17T22:23:17.920Z,0
2016-06-17T22:24:17.346Z,0
2016-06-17T22:25:17.303Z,0
2016-06-17T22:26:17.900Z,0
2016-06-17T22:27:16.639Z,0
2016-06-17T22:28:17.251Z,0
2016-06-17T22:29:17.301Z,0
2016-06-17T22:30:17.852Z,0
2016-06-17T22:31:16.590Z,0
2016-06-17T22:32:17.201Z,0
2016-06-17T22:33:17.174Z,0
2016-06-17T22:34:17.787Z,0
2016-06-17T22:35:17.775Z,0
2016-06-17T22:36:17.153Z,0
2016-06-17T22:37:17.766Z,0
2016-06-17T22:38:16.504Z,0
2016-06-17T22:39:17.742Z,0
2016-06-17T22:40:17.104Z,0
2016-06-17T22:41:16.452Z,0
2016-06-17T22:42:18.300Z,0
2016-06-17T22:43:16.443Z,0
2016-06-17T22:44:17.665Z,0
2016-06-17T22:45:17.044Z,0
2016-06-17T22:46:17.032Z,0
2016-06-17T22:47:17.629Z,0
2016-06-17T22:48:17.632Z,0
2016-06-17T22:49:16.370Z,0
2016-06-17T22:50:17.593Z,0
2016-06-17T22:51:17.580Z,0
2016-06-17T22:52:16.975Z,0
2016-06-17T22:53:17.557Z,0
2016-06-17T22:54:17.591Z,0
2016-06-17T22:55:16.922Z,0
2016-06-17T22:56:17.534Z,0
2016-06-17T22:57:16.273Z,0
2016-06-17T22:58:16.276Z,0
2016-06-17T22:59:17.499Z,0
2016-06-17T23:00:17.470Z,0
2016-06-17T23:01:16.834Z,0
2016-06-17T23:02:17.462Z,0
2016-06-17T23:03:16.200Z,0
2016-06-17T23:04:16.188Z,0
2016-06-17T23:05:16.801Z,0
2016-06-17T23:06:16.789Z,0
2016-06-17T23:07:16.777Z,0
2016-06-17T23:08:17.373Z,0
2016-06-17T23:09:16.126Z,0
2016-06-17T23:10:17.349Z,0
2016-06-17T23:11:16.086Z,0
2016-06-17T23:12:16.700Z,0
2016-06-17T23:13:17.312Z,0
2016-06-17T23:14:17.301Z,0
2016-06-17T23:15:17.289Z,0
2016-06-17T23:16:16.651Z,0
2016-06-17T23:17:16.639Z,0
2016-06-17T23:18:17.252Z,0
2016-06-17T23:19:17.239Z,0
2016-06-17T23:20:16.618Z,0
2016-06-17T23:21:17.200Z,0
2016-06-17T23:22:17.204Z,0
2016-06-17T23:23:16.566Z,0
2016-06-17T23:24:15.944Z,0
2016-06-17T23:25:17.182Z,0
2016-06-17T23:26:16.545Z,0
2016-06-17T23:27:17.142Z,0
2016-06-17T23:28:16.505Z,0
2016-06-17T23:29:15.884Z,0
2016-06-17T23:30:16.496Z,0
2016-06-17T23:31:17.078Z,0
2016-06-17T23:32:16.473Z,0
2016-06-17T23:33:17.070Z,0
2016-06-17T23:34:17.041Z,0
2016-06-17T23:35:16.435Z,0
2016-06-17T23:36:17.658Z,0
2016-06-17T23:37:16.443Z,0
2016-06-17T23:38:16.371Z,0
2016-06-17T23:39:17.001Z,0
2016-06-17T23:40:15.741Z,0
2016-06-17T23:41:16.355Z,0
2016-06-17T23:42:16.345Z,0
2016-06-17T23:43:16.333Z,0
2016-06-17T23:44:16.931Z,0
2016-06-17T23:45:16.311Z,0
2016-06-17T23:46:16.924Z,0
2016-06-17T23:47:16.272Z,0
2016-06-17T23:48:16.275Z,0
2016-06-17T23:49:17.514Z,0
2016-06-17T23:50:15.625Z,0
2016-06-17T23:51:16.224Z,0
2016-06-17T23:52:16.226Z,0
2016-06-17T23:53:16.199Z,0
2016-06-17T23:54:16.203Z,0
2016-06-17T23:55:17.424Z,0
2016-06-17T23:56:16.834Z,0
2016-06-17T23:57:15.541Z,0
2016-06-17T23:58:16.153Z,0
2016-06-17T23:59:16.141Z,0
